Time;durP1;ratioP1;P1;durP2;ratioP2;P2;SDS_P1;SDS_P2;PMS_P1;PMS_P2;Temp;Humidity;BMP_temperature;BMP_pressure;BME280_temperature;BME280_humidity;BME280_pressure;Samples;Min_cycle;Max_cycle;Signal;HPM_P1;HPM_P2
2021/12/08 00:00:10;;;;;;;52.40;45.20;;;;;;;5.75;100.00;99244.17;1771922;80;21311;-81
2021/12/08 00:03:18;;;;;;;52.73;47.03;;;;;;;5.69;100.00;99246.20;1784216;80;21832;-82
2021/12/08 00:06:22;;;;;;;37.50;31.42;;;;;;;5.61;100.00;99244.36;1785672;80;21288;-83
2021/12/08 00:09:45;;;;;;;31.35;25.00;;;;;;;5.55;100.00;99258.61;1785792;80;21785;-84
2021/12/08 00:16:01;;;;;;;37.20;33.23;;;;;;;5.49;100.00;99251.12;1785715;80;21644;-84
2021/12/08 00:19:07;;;;;;;44.23;39.48;;;;;;;5.47;100.00;99257.24;1785609;80;21191;-83
2021/12/08 00:22:12;;;;;;;49.20;43.92;;;;;;;5.46;100.00;99260.10;1785042;80;21141;-84
2021/12/08 00:25:18;;;;;;;26.48;21.77;;;;;;;5.39;100.00;99255.36;1785454;80;21527;-85
2021/12/08 00:28:24;;;;;;;32.35;25.55;;;;;;;5.31;100.00;99254.51;1784049;80;21207;-84
2021/12/08 00:31:29;;;;;;;17.80;13.90;;;;;;;5.25;100.00;99263.33;1783955;80;21248;-85
2021/12/08 00:34:35;;;;;;;17.67;11.25;;;;;;;5.21;100.00;99267.38;1783984;80;21819;-84
2021/12/08 00:37:41;;;;;;;37.23;33.13;;;;;;;5.19;100.00;99270.78;1775618;80;21293;-82
2021/12/08 00:40:47;;;;;;;50.38;40.23;;;;;;;5.17;100.00;99261.44;1770315;81;21217;-82
2021/12/08 00:43:52;;;;;;;30.92;25.85;;;;;;;5.17;100.00;99262.80;1770340;81;21335;-82
2021/12/08 00:46:57;;;;;;;26.23;17.00;;;;;;;5.17;100.00;99270.08;1771478;81;21829;-83
2021/12/08 00:50:02;;;;;;;20.72;16.87;;;;;;;5.10;100.00;99272.11;1771761;81;21268;-83
2021/12/08 00:53:08;;;;;;;19.67;15.23;;;;;;;5.03;100.00;99264.80;1770589;81;21213;-81
2021/12/08 00:56:14;;;;;;;23.83;18.75;;;;;;;4.96;100.00;99270.56;1771803;81;21257;-82
2021/12/08 00:59:19;;;;;;;49.35;44.00;;;;;;;4.91;100.00;99266.14;1771774;81;21297;-81
2021/12/08 01:02:24;;;;;;;61.18;54.85;;;;;;;4.87;100.00;99260.20;1771028;81;21350;-84
2021/12/08 01:05:33;;;;;;;69.58;62.08;;;;;;;4.86;100.00;99261.22;1771841;81;21328;-82
2021/12/08 01:08:39;;;;;;;52.13;46.33;;;;;;;4.85;100.00;99256.83;1770371;81;21924;-83
2021/12/08 01:11:45;;;;;;;54.45;47.83;;;;;;;4.80;100.00;99270.02;1770371;81;21312;-83
2021/12/08 01:14:51;;;;;;;21.87;17.70;;;;;;;4.73;100.00;99275.73;1770325;81;21268;-83
2021/12/08 01:17:56;;;;;;;102.42;91.53;;;;;;;4.68;100.00;99271.32;1770682;81;21182;-84
2021/12/08 01:21:03;;;;;;;72.80;63.98;;;;;;;4.62;100.00;99264.70;1771791;81;21284;-84
2021/12/08 01:24:10;;;;;;;44.35;38.40;;;;;;;4.53;100.00;99254.84;1770880;81;21193;-84
2021/12/08 01:27:15;;;;;;;60.70;53.87;;;;;;;4.45;100.00;99258.87;1771160;81;21301;-82
2021/12/08 01:30:16;;;;;;;80.12;71.35;;;;;;;4.36;100.00;99255.27;1770526;81;21162;-83
2021/12/08 01:33:21;;;;;;;49.70;44.13;;;;;;;4.26;100.00;99256.75;1771969;81;21320;-83
2021/12/08 01:36:25;;;;;;;89.90;79.92;;;;;;;4.19;100.00;99253.48;1771889;81;21838;-82
2021/12/08 01:39:32;;;;;;;52.62;45.73;;;;;;;4.16;100.00;99256.03;1771464;81;22091;-84
2021/12/08 01:42:43;;;;;;;43.48;38.80;;;;;;;4.11;100.00;99247.55;1772023;81;21211;-83
2021/12/08 01:46:00;;;;;;;59.08;50.45;;;;;;;4.06;100.00;99235.00;1771993;81;21268;-83
2021/12/08 01:49:04;;;;;;;51.40;45.33;;;;;;;4.03;100.00;99235.31;1772013;81;21280;-83
2021/12/08 01:52:09;;;;;;;51.68;46.23;;;;;;;4.00;100.00;99226.16;1771801;81;21331;-83
2021/12/08 01:55:14;;;;;;;95.95;85.72;;;;;;;3.97;100.00;99230.05;1770636;81;21283;-83
2021/12/08 01:58:20;;;;;;;51.42;45.98;;;;;;;3.97;100.00;99241.38;1762074;81;21319;-82
2021/12/08 02:01:27;;;;;;;81.00;72.30;;;;;;;3.96;100.00;99232.41;1771767;81;21343;-83
2021/12/08 02:04:32;;;;;;;64.90;58.08;;;;;;;4.00;100.00;99228.86;1771989;81;21303;-83
2021/12/08 02:07:38;;;;;;;60.58;54.10;;;;;;;4.03;100.00;99243.43;1771957;81;21189;-83
2021/12/08 02:10:43;;;;;;;68.55;61.18;;;;;;;4.04;100.00;99232.94;1771663;80;21162;-83
2021/12/08 02:13:51;;;;;;;59.40;52.93;;;;;;;4.06;100.00;99230.94;1772020;81;21300;-83
2021/12/08 02:16:57;;;;;;;68.67;61.20;;;;;;;4.06;100.00;99217.41;1771991;81;21300;-83
2021/12/08 02:20:02;;;;;;;55.10;48.95;;;;;;;4.07;100.00;99220.45;1771890;81;21158;-82
2021/12/08 02:23:07;;;;;;;48.63;43.45;;;;;;;4.07;100.00;99213.69;1771952;81;21900;-83
2021/12/08 02:26:13;;;;;;;42.45;37.90;;;;;;;4.08;100.00;99212.16;1771937;81;21876;-84
2021/12/08 02:29:29;;;;;;;71.22;61.25;;;;;;;4.08;100.00;99208.11;1771942;81;21189;-83
2021/12/08 02:49:52;;;;;;;28.32;20.50;;;;;;;4.22;100.00;99190.41;1771942;81;21328;-84
2021/12/08 02:52:56;;;;;;;18.17;15.20;;;;;;;4.22;100.00;99182.29;1771926;81;21292;-84
2021/12/08 02:56:02;;;;;;;35.30;28.70;;;;;;;4.23;100.00;99185.84;1771895;81;21320;-83
2021/12/08 02:59:08;;;;;;;80.28;71.77;;;;;;;4.23;100.00;99196.66;1772029;81;21806;-84
2021/12/08 03:02:13;;;;;;;46.05;40.20;;;;;;;4.23;100.00;99195.31;1771970;81;21173;-83
2021/12/08 03:05:18;;;;;;;57.23;48.30;;;;;;;4.25;100.00;99194.66;1772018;81;21263;-83
2021/12/08 03:08:23;;;;;;;35.70;31.87;;;;;;;4.28;100.00;99186.20;1771901;81;21181;-83
2021/12/08 03:11:29;;;;;;;66.82;59.60;;;;;;;4.31;100.00;99181.81;1771755;81;21826;-83
2021/12/08 03:14:34;;;;;;;49.70;44.30;;;;;;;4.35;100.00;99182.68;1771952;81;21719;-82
2021/12/08 03:17:39;;;;;;;81.55;72.95;;;;;;;4.37;100.00;99177.09;1771882;81;21291;-84
2021/12/08 03:20:46;;;;;;;31.48;23.02;;;;;;;4.38;100.00;99175.27;1771966;81;21154;-84
2021/12/08 03:24:06;;;;;;;40.03;35.20;;;;;;;4.38;100.00;99165.28;1772024;81;21150;-83
2021/12/08 03:30:16;;;;;;;17.57;13.85;;;;;;;4.40;100.00;99158.33;1772053;81;21233;-82
2021/12/08 03:33:19;;;;;;;28.73;23.18;;;;;;;4.41;100.00;99158.67;1771959;81;21213;-84
2021/12/08 03:36:25;;;;;;;38.30;34.13;;;;;;;4.40;100.00;99151.56;1772096;81;21367;-83
2021/12/08 03:39:29;;;;;;;23.18;16.67;;;;;;;4.38;100.00;99153.09;1772080;80;21311;-83
2021/12/08 03:42:38;;;;;;;31.10;26.73;;;;;;;4.36;100.00;99143.76;1771265;81;21193;-83
2021/12/08 03:45:46;;;;;;;32.63;25.65;;;;;;;4.36;100.00;99159.16;1771904;81;21268;-84
2021/12/08 03:48:52;;;;;;;25.62;19.17;;;;;;;4.35;100.00;99152.91;1745186;81;21264;-83
2021/12/08 03:51:56;;;;;;;32.85;26.95;;;;;;;4.35;100.00;99158.31;1774858;79;21311;-84
2021/12/08 03:54:56;;;;;;;26.07;18.35;;;;;;;4.36;100.00;99150.53;1803573;79;21146;-83
2021/12/08 03:58:01;;;;;;;22.13;13.25;;;;;;;4.39;100.00;99147.17;1800338;79;21121;-84
2021/12/08 04:01:06;;;;;;;24.98;17.25;;;;;;;4.39;100.00;99142.59;1772004;81;21165;-84
2021/12/08 04:04:12;;;;;;;28.57;21.97;;;;;;;4.39;100.00;99139.05;1772080;81;21297;-84
2021/12/08 04:07:19;;;;;;;19.67;12.28;;;;;;;4.44;100.00;99135.33;1773927;79;21295;-84
2021/12/08 04:10:24;;;;;;;23.62;13.83;;;;;;;4.47;100.00;99124.15;1803522;79;21762;-84
2021/12/08 04:13:34;;;;;;;76.33;68.00;;;;;;;4.49;100.00;99131.11;1803494;79;21253;-84
2021/12/08 04:16:50;;;;;;;55.38;45.70;;;;;;;4.50;100.00;99130.59;1803690;79;21811;-84
2021/12/08 04:19:55;;;;;;;23.05;18.35;;;;;;;4.52;100.00;99139.42;1784041;79;21248;-83
2021/12/08 04:23:02;;;;;;;26.25;22.80;;;;;;;4.52;100.00;99140.78;1802258;79;21185;-84
2021/12/08 04:26:09;;;;;;;136.25;121.37;;;;;;;4.52;100.00;99136.20;1803176;79;21169;-81
2021/12/08 04:29:15;;;;;;;41.35;36.83;;;;;;;4.55;100.00;99137.20;1803545;79;21264;-82
2021/12/08 04:32:21;;;;;;;60.85;53.85;;;;;;;4.57;100.00;99150.60;1785569;79;21149;-82
2021/12/08 04:35:27;;;;;;;30.92;25.48;;;;;;;4.59;100.00;99152.63;1771650;81;21311;-83
2021/12/08 04:38:40;;;;;;;42.23;35.85;;;;;;;4.60;100.00;99135.35;1771746;81;21288;-83
2021/12/08 04:41:51;;;;;;;43.25;36.30;;;;;;;4.63;100.00;99143.67;1780861;79;21202;-83
2021/12/08 04:44:58;;;;;;;62.62;55.83;;;;;;;4.66;100.00;99137.41;1803489;79;21169;-82
2021/12/08 04:51:45;;;;;;;55.63;44.20;;;;;;;4.75;100.00;99140.95;1802347;79;21826;-83
2021/12/08 05:01:55;;;;;;;125.18;111.80;;;;;;;4.79;100.00;99131.48;1772294;79;21152;-84
2021/12/08 05:04:59;;;;;;;59.20;52.85;;;;;;;4.81;100.00;99141.66;1774385;79;21790;-84
2021/12/08 05:07:57;;;;;;;55.05;48.10;;;;;;;4.85;100.00;99142.52;1771830;81;21189;-83
2021/12/08 05:10:59;;;;;;;89.62;79.20;;;;;;;4.86;100.00;99138.78;1771887;81;21161;-83
2021/12/08 05:14:08;;;;;;;61.65;53.87;;;;;;;4.88;100.00;99132.67;1771733;81;21299;-83
2021/12/08 05:17:18;;;;;;;56.45;45.55;;;;;;;4.90;100.00;99132.53;1803515;79;21455;-84
2021/12/08 05:21:04;;;;;;;34.63;30.48;;;;;;;4.91;100.00;99148.27;1803642;79;21308;-84
2021/12/08 05:24:16;;;;;;;63.23;56.42;;;;;;;4.92;100.00;99161.64;1779338;79;21797;-84
2021/12/08 05:27:29;;;;;;;66.02;58.73;;;;;;;4.94;100.00;99163.70;1787434;79;21183;-84
2021/12/08 05:30:41;;;;;;;41.13;34.88;;;;;;;4.96;100.00;99163.00;1785975;79;21720;-83
2021/12/08 05:33:48;;;;;;;53.68;46.63;;;;;;;4.96;100.00;99175.71;1788641;79;21831;-83
2021/12/08 05:36:54;;;;;;;96.22;85.97;;;;;;;4.98;100.00;99173.66;1780986;79;21676;-83
2021/12/08 05:40:00;;;;;;;52.17;45.58;;;;;;;5.00;100.00;99177.07;1783984;79;21169;-84
2021/12/08 05:43:05;;;;;;;64.45;57.40;;;;;;;5.03;100.00;99182.14;1787248;79;21785;-83
2021/12/08 05:46:12;;;;;;;82.10;73.17;;;;;;;5.07;100.00;99187.56;1787568;79;21502;-84
2021/12/08 05:49:19;;;;;;;41.83;35.38;;;;;;;5.09;100.00;99180.97;1784152;79;21248;-84
2021/12/08 05:52:24;;;;;;;31.48;26.23;;;;;;;5.13;100.00;99178.78;1784409;79;21292;-83
2021/12/08 05:55:31;;;;;;;23.95;16.97;;;;;;;5.17;100.00;99169.27;1785889;78;21299;-83
2021/12/08 05:58:35;;;;;;;45.90;41.02;;;;;;;5.22;100.00;99168.28;1783094;79;21288;-83
2021/12/08 06:01:47;;;;;;;44.18;37.33;;;;;;;5.25;100.00;99169.27;1779781;79;21176;-83
2021/12/08 06:04:52;;;;;;;34.67;30.80;;;;;;;5.24;100.00;99154.03;1781065;79;21729;-84
2021/12/08 06:07:57;;;;;;;31.75;20.55;;;;;;;5.26;100.00;99153.85;1776880;79;21432;-84
2021/12/08 06:11:03;;;;;;;75.92;67.67;;;;;;;5.26;100.00;99150.62;1778324;79;21952;-83
2021/12/08 06:14:09;;;;;;;37.73;33.60;;;;;;;5.28;100.00;99149.13;1775183;79;21686;-83
2021/12/08 06:17:19;;;;;;;58.28;51.75;;;;;;;5.31;100.00;99152.31;1775586;79;21291;-82
2021/12/08 06:20:24;;;;;;;37.63;30.43;;;;;;;5.36;100.00;99159.45;1780383;78;21857;-82
2021/12/08 06:23:31;;;;;;;55.50;48.52;;;;;;;5.41;100.00;99167.08;1783247;78;21291;-84
2021/12/08 06:26:37;;;;;;;57.85;51.53;;;;;;;5.49;100.00;99177.89;1784881;78;21527;-85
2021/12/08 06:29:42;;;;;;;42.60;35.95;;;;;;;5.58;100.00;99189.08;1779380;78;21346;-85
2021/12/08 06:32:48;;;;;;;42.67;38.08;;;;;;;5.66;100.00;99185.52;1779703;78;21169;-84
2021/12/08 06:35:53;;;;;;;38.23;34.13;;;;;;;5.73;100.00;99197.36;1785979;78;21177;-83
2021/12/08 06:38:59;;;;;;;41.68;36.53;;;;;;;5.79;100.00;99201.27;1780796;78;22194;-85
2021/12/08 06:42:08;;;;;;;98.78;88.37;;;;;;;5.86;100.00;99182.75;1778329;78;21931;-84
2021/12/08 06:45:17;;;;;;;;;;;;;;;5.92;100.00;99183.10;1780359;78;21300;-85
2021/12/08 06:48:26;;;;;;;30.12;24.30;;;;;;;5.93;100.00;99187.02;1777987;78;20223;-85
2021/12/08 06:51:35;;;;;;;63.85;55.15;;;;;;;5.95;100.00;99184.13;1777674;78;21766;-85
2021/12/08 06:54:46;;;;;;;60.10;45.78;;;;;;;6.02;100.00;99183.27;1774515;78;21298;-85
2021/12/08 06:58:03;;;;;;;51.77;46.25;;;;;;;6.08;100.00;99181.71;1774477;78;21215;-85
2021/12/08 07:05:07;;;;;;;51.48;43.25;;;;;;;6.20;100.00;99171.30;1777206;78;21664;-84
2021/12/08 07:08:07;;;;;;;66.45;59.65;;;;;;;6.25;100.00;99168.39;1778269;78;21165;-83
2021/12/08 07:11:15;;;;;;;80.03;71.42;;;;;;;6.32;100.00;99174.82;1722784;81;21287;-83
2021/12/08 07:14:21;;;;;;;50.28;45.08;;;;;;;6.38;100.00;99167.31;1781036;78;21185;-86
2021/12/08 07:17:28;;;;;;;44.48;39.63;;;;;;;6.44;100.00;99173.06;1775680;78;21150;-83
2021/12/08 07:20:48;;;;;;;55.63;49.60;;;;;;;6.48;100.00;99168.97;1765597;78;21798;-84
2021/12/08 07:23:58;;;;;;;59.40;53.10;;;;;;;6.51;100.00;99174.05;1778498;78;21173;-85
2021/12/08 07:27:08;;;;;;;40.63;31.95;;;;;;;6.53;100.00;99163.84;1752701;78;21319;-84
2021/12/08 07:30:30;;;;;;;22.10;17.50;;;;;;;6.54;100.00;99169.61;1762855;78;22003;-83
2021/12/08 07:33:38;;;;;;;57.00;50.95;;;;;;;6.54;100.00;99166.41;1783463;78;21287;-84
2021/12/08 07:36:48;;;;;;;;;;;;;;;6.52;100.00;99173.02;1767501;78;21162;-84
2021/12/08 07:39:58;;;;;;;42.88;35.65;;;;;;;6.53;100.00;99168.77;1777626;78;20568;-84
2021/12/08 07:43:07;;;;;;;65.97;59.00;;;;;;;6.55;100.00;99165.89;1773167;78;21169;-86
2021/12/08 07:46:17;;;;;;;44.95;37.53;;;;;;;6.54;100.00;99166.41;1760456;78;21754;-86
2021/12/08 07:49:33;;;;;;;65.25;58.50;;;;;;;6.53;100.00;99161.13;1777707;78;21212;-85
2021/12/08 07:52:42;;;;;;;40.25;34.13;;;;;;;6.54;100.00;99158.25;1776512;78;21228;-84
2021/12/08 07:55:51;;;;;;;48.80;43.65;;;;;;;6.58;100.00;99169.07;1776123;78;21668;-83
2021/12/08 07:59:01;;;;;;;45.00;40.12;;;;;;;6.65;100.00;99177.37;1773125;78;21369;-83
2021/12/08 08:02:11;;;;;;;36.65;24.60;;;;;;;6.70;100.00;99162.73;1779250;78;21921;-81
2021/12/08 08:05:44;;;;;;;34.08;26.35;;;;;;;6.76;100.00;99156.57;1779397;78;21145;-84
2021/12/08 08:08:52;;;;;;;30.70;24.32;;;;;;;6.81;100.00;99151.44;1779765;78;21810;-83
2021/12/08 08:12:02;;;;;;;36.70;30.77;;;;;;;6.84;100.00;99142.94;1786089;78;21330;-83
2021/12/08 08:15:15;;;;;;;35.38;29.25;;;;;;;6.84;100.00;99150.25;1779561;78;21146;-82
2021/12/08 08:18:25;;;;;;;51.50;45.92;;;;;;;6.88;100.00;99136.63;1779951;78;21307;-83
2021/12/08 08:21:31;;;;;;;30.85;27.15;;;;;;;6.90;100.00;99129.97;1720684;81;21475;-82
2021/12/08 08:24:44;;;;;;;56.68;50.90;;;;;;;6.89;100.00;99124.20;1784190;78;21268;-82
2021/12/08 08:27:52;;;;;;;40.70;36.50;;;;;;;6.89;100.00;99121.48;1777709;78;21173;-83
2021/12/08 08:31:14;;;;;;;59.20;52.83;;;;;;;6.93;100.00;99120.62;1800560;78;21181;-84
2021/12/08 08:34:27;;;;;;;24.70;15.90;;;;;;;6.99;100.00;99116.32;1758849;79;22049;-84
2021/12/08 08:37:33;;;;;;;29.27;22.20;;;;;;;7.03;100.00;99122.57;1763336;79;21444;-85
2021/12/08 08:40:49;;;;;;;26.02;19.90;;;;;;;7.11;100.00;99127.95;1781139;78;21208;-84
2021/12/08 08:43:54;;;;;;;39.48;31.75;;;;;;;7.18;100.00;99128.89;1776813;78;21798;-84
2021/12/08 08:47:05;;;;;;;35.85;30.37;;;;;;;7.28;100.00;99120.99;1775473;77;21323;-84
2021/12/08 08:50:10;;;;;;;36.07;32.30;;;;;;;7.42;100.00;99114.22;1722410;81;21287;-84
2021/12/08 08:53:15;;;;;;;28.40;23.80;;;;;;;7.52;100.00;99105.78;1776362;78;21265;-85
2021/12/08 08:56:27;;;;;;;24.10;17.20;;;;;;;7.58;100.00;99102.86;1780452;78;21346;-84
2021/12/08 08:59:40;;;;;;;21.45;18.60;;;;;;;7.61;100.00;99112.83;1765539;78;21154;-83
2021/12/08 09:02:43;;;;;;;40.70;32.73;;;;;;;7.65;100.00;99111.95;1778566;79;21181;-83
2021/12/08 09:05:53;;;;;;;26.80;21.68;;;;;;;7.69;100.00;99101.02;1782795;79;21589;-82
2021/12/08 09:09:01;;;;;;;32.63;27.58;;;;;;;7.72;100.00;99104.75;1717570;81;21291;-83
2021/12/08 09:12:05;;;;;;;35.05;27.22;;;;;;;7.69;100.00;99117.36;1778160;79;21586;-83
2021/12/08 09:15:24;;;;;;;31.30;20.40;;;;;;;7.65;100.00;99117.39;1779336;79;21585;-83
2021/12/08 09:18:45;;;;;;;16.30;12.60;;;;;;;7.66;100.00;99118.56;1778613;79;22335;-83
2021/12/08 09:22:00;;;;;;;30.43;22.75;;;;;;;7.70;100.00;99116.31;1776108;78;21162;-85
2021/12/08 09:25:13;;;;;;;31.15;23.90;;;;;;;7.75;100.00;99122.04;1775618;78;21927;-86
2021/12/08 09:28:33;;;;;;;66.75;59.77;;;;;;;7.79;100.00;99102.11;1780269;78;21154;-86
2021/12/08 09:31:44;;;;;;;70.28;62.83;;;;;;;7.84;100.00;99097.78;1780585;78;21279;-85
2021/12/08 09:35:03;;;;;;;48.42;41.68;;;;;;;7.85;100.00;99100.83;1778018;78;21563;-84
2021/12/08 09:38:25;;;;;;;31.15;24.72;;;;;;;7.86;100.00;99109.34;1763216;78;21169;-84
2021/12/08 09:41:37;;;;;;;42.03;34.43;;;;;;;7.88;100.00;99107.27;1779563;78;21176;-84
2021/12/08 09:44:49;;;;;;;45.20;40.28;;;;;;;7.86;99.55;99093.01;1776519;78;21216;-85
2021/12/08 09:47:54;;;;;;;33.92;30.27;;;;;;;7.88;99.80;99097.73;1790253;77;21608;-84
2021/12/08 09:51:01;;;;;;;53.75;48.10;;;;;;;7.93;99.60;99095.29;1793933;77;21338;-84
2021/12/08 09:54:07;;;;;;;41.37;32.30;;;;;;;7.98;99.70;99089.28;1795383;77;21373;-85
2021/12/08 09:57:10;;;;;;;39.23;34.45;;;;;;;8.07;99.58;99092.75;1794681;77;21298;-86
2021/12/08 10:00:17;;;;;;;51.25;45.83;;;;;;;8.11;99.16;99096.78;1797464;77;21323;-85
2021/12/08 10:03:22;;;;;;;26.10;17.23;;;;;;;8.15;99.22;99085.84;1792183;77;21284;-85
2021/12/08 10:06:29;;;;;;;54.90;49.10;;;;;;;8.19;98.92;99090.72;1795686;77;21299;-84
2021/12/08 10:09:35;;;;;;;48.10;42.88;;;;;;;8.24;98.87;99086.06;1793634;77;21634;-82
2021/12/08 10:12:40;;;;;;;51.95;45.67;;;;;;;8.29;98.47;99083.61;1787003;79;21225;-84
2021/12/08 10:15:46;;;;;;;30.00;26.93;;;;;;;8.31;97.71;99080.16;1772425;77;21612;-83
2021/12/08 10:18:51;;;;;;;53.05;47.40;;;;;;;8.31;98.03;99085.60;1792692;77;21300;-83
2021/12/08 10:21:58;;;;;;;33.75;28.47;;;;;;;8.33;97.84;99060.91;1792780;77;21271;-83
2021/12/08 10:25:26;;;;;;;15.10;10.68;;;;;;;8.32;98.09;99055.95;1789906;77;21369;-84
2021/12/08 10:28:40;;;;;;;21.00;14.28;;;;;;;8.35;98.92;99061.03;1792925;77;21322;-84
2021/12/08 10:31:57;;;;;;;34.33;28.70;;;;;;;8.39;98.60;99055.56;1770537;77;21805;-84
2021/12/08 10:35:06;;;;;;;21.87;13.93;;;;;;;8.44;98.58;99047.64;1738355;80;21173;-83
2021/12/08 10:38:15;;;;;;;15.25;8.95;;;;;;;8.57;99.18;99050.20;1729994;81;21245;-84
2021/12/08 10:41:21;;;;;;;16.17;9.50;;;;;;;8.66;98.72;99053.97;1730058;81;21394;-82
2021/12/08 10:44:46;;;;;;;14.28;9.48;;;;;;;8.61;97.59;99051.47;1730291;81;21213;-83
2021/12/08 10:48:02;;;;;;;17.17;12.43;;;;;;;8.58;97.78;99053.24;1719702;80;21675;-82
2021/12/08 10:54:34;;;;;;;17.92;12.23;;;;;;;8.59;98.11;99057.65;1714371;81;21319;-83
2021/12/08 10:57:44;;;;;;;14.40;7.83;;;;;;;8.55;98.48;99043.55;1728202;81;21336;-82
2021/12/08 11:00:52;;;;;;;14.58;9.93;;;;;;;8.56;98.77;99040.31;1731663;81;21266;-83
2021/12/08 11:04:16;;;;;;;31.70;21.02;;;;;;;8.55;98.99;99039.98;1729314;81;21570;-83
2021/12/08 11:07:19;;;;;;;36.10;31.85;;;;;;;8.54;99.34;99050.05;1739567;80;22249;-84
2021/12/08 11:10:30;;;;;;;16.45;13.32;;;;;;;8.55;99.57;99038.63;1741353;80;21956;-86
2021/12/08 11:13:53;;;;;;;33.13;28.15;;;;;;;8.61;100.00;99041.93;1706625;80;21161;-81
2021/12/08 11:16:57;;;;;;;54.38;48.55;;;;;;;8.67;99.87;99035.72;1734515;80;21239;-81
2021/12/08 11:20:31;;;;;;;70.10;62.75;;;;;;;8.75;99.57;99038.81;1737564;80;21177;-81
2021/12/08 11:23:45;;;;;;;33.63;29.57;;;;;;;8.80;99.09;99038.58;1735595;80;21296;-81
2021/12/08 11:26:54;;;;;;;44.83;35.90;;;;;;;8.83;98.39;99034.59;1734597;80;21311;-81
2021/12/08 11:30:01;;;;;;;36.80;30.00;;;;;;;8.87;98.33;99026.36;1699158;80;2513420;-86
2021/12/08 11:33:29;;;;;;;36.05;31.07;;;;;;;8.88;97.82;99032.97;1650109;83;21379;-85
2021/12/08 11:37:08;;;;;;;23.83;16.25;;;;;;;8.88;97.97;99033.48;1675329;83;21167;-87
2021/12/08 11:40:30;;;;;;;33.70;27.52;;;;;;;8.88;97.51;99027.51;1683181;83;21386;-83
2021/12/08 11:43:41;;;;;;;42.43;36.55;;;;;;;8.86;96.87;99025.52;1672046;83;21358;-84
2021/12/08 11:46:56;;;;;;;52.35;46.30;;;;;;;8.83;96.89;99018.23;1680982;83;21496;-84
2021/12/08 11:50:23;;;;;;;19.90;15.32;;;;;;;8.79;96.85;99019.14;1683076;84;21349;-83
2021/12/08 11:53:29;;;;;;;33.70;27.95;;;;;;;8.80;97.67;99015.41;1685433;84;21399;-82
2021/12/08 11:56:47;;;;;;;59.93;49.05;;;;;;;8.82;97.67;99020.13;1670061;84;21228;-84
2021/12/08 12:00:10;;;;;;;33.53;27.50;;;;;;;8.82;97.37;99022.85;1670110;82;21623;-84
2021/12/08 12:03:19;;;;;;;17.15;10.08;;;;;;;8.81;96.76;99033.44;1673278;83;21249;-82
2021/12/08 12:06:28;;;;;;;12.88;7.20;;;;;;;8.81;96.85;99029.88;1682793;83;21375;-83
2021/12/08 12:09:36;;;;;;;16.17;8.48;;;;;;;8.85;97.13;99036.11;1669169;84;21232;-84
2021/12/08 12:12:43;;;;;;;9.25;6.35;;;;;;;8.90;97.19;99032.27;1686862;82;21204;-85
2021/12/08 12:15:54;;;;;;;12.23;6.50;;;;;;;8.86;96.85;99039.15;1668379;82;21189;-87
2021/12/08 12:18:59;;;;;;;28.92;17.42;;;;;;;8.81;96.95;99038.89;1670543;83;21757;-85
2021/12/08 12:22:44;;;;;;;13.75;8.18;;;;;;;8.77;96.84;99036.23;1654396;84;21749;-86
2021/12/08 12:26:16;;;;;;;10.78;5.67;;;;;;;8.75;97.45;99046.99;1670737;83;21842;-83
2021/12/08 12:29:36;;;;;;;12.37;6.40;;;;;;;8.74;98.21;99058.42;1656428;85;21208;-85
2021/12/08 12:32:56;;;;;;;10.00;6.20;;;;;;;8.75;98.54;99050.59;1651711;85;21228;-86
2021/12/08 12:36:05;;;;;;;10.60;4.97;;;;;;;8.76;98.77;99053.64;1674392;83;21710;-85
2021/12/08 12:39:20;;;;;;;11.68;5.95;;;;;;;8.81;99.05;99053.89;1666271;84;21203;-86
2021/12/08 12:42:25;;;;;;;8.83;5.65;;;;;;;8.85;99.22;99055.72;1668787;84;21671;-85
2021/12/08 12:45:48;;;;;;;11.93;5.67;;;;;;;8.87;99.58;99050.38;1671683;83;21884;-86
2021/12/08 12:48:55;;;;;;;11.15;6.22;;;;;;;8.91;99.27;99051.67;1667593;83;21259;-88
2021/12/08 12:52:12;;;;;;;13.62;6.80;;;;;;;8.93;98.95;99059.12;1655747;83;21500;-84
2021/12/08 12:55:27;;;;;;;11.93;6.33;;;;;;;8.94;98.87;99054.54;1666540;83;21181;-84
2021/12/08 12:58:49;;;;;;;9.35;5.70;;;;;;;8.92;98.82;99049.27;1662942;84;21231;-84
2021/12/08 13:01:55;;;;;;;10.38;5.78;;;;;;;8.86;98.86;99050.05;1668665;82;21187;-84
2021/12/08 13:05:11;;;;;;;10.10;5.53;;;;;;;8.79;99.12;99053.23;1678328;82;21172;-84
2021/12/08 13:08:16;;;;;;;13.25;6.55;;;;;;;8.75;99.50;99056.05;1661682;83;21274;-84
2021/12/08 13:11:59;;;;;;;10.65;6.40;;;;;;;8.70;99.91;99056.63;1673821;83;21817;-82
2021/12/08 13:15:26;;;;;;;10.90;5.45;;;;;;;8.67;100.00;99057.53;1674193;85;21880;-82
2021/12/08 13:18:32;;;;;;;10.82;5.62;;;;;;;8.63;100.00;99048.05;1657597;85;21587;-81
2021/12/08 13:21:57;;;;;;;13.22;5.55;;;;;;;8.58;100.00;99047.80;1679302;84;21323;-85
2021/12/08 13:25:00;;;;;;;10.68;6.05;;;;;;;8.55;100.00;99044.08;1664301;85;21889;-84
2021/12/08 13:28:34;;;;;;;15.83;6.53;;;;;;;8.50;100.00;99035.64;1680717;84;21303;-88
2021/12/08 13:31:48;;;;;;;14.90;5.87;;;;;;;8.45;100.00;99038.42;1677827;84;21318;-85
2021/12/08 13:34:50;;;;;;;15.15;6.92;;;;;;;8.43;100.00;99046.48;1681434;84;21169;-85
2021/12/08 13:38:05;;;;;;;12.35;6.78;;;;;;;8.35;100.00;99036.51;1680045;84;21801;-86
2021/12/08 13:41:10;;;;;;;16.57;7.60;;;;;;;8.29;100.00;99048.19;1682960;85;21330;-87
2021/12/08 13:44:35;;;;;;;11.18;6.95;;;;;;;8.22;100.00;99066.32;1666359;84;21327;-85
2021/12/08 13:47:43;;;;;;;12.00;5.97;;;;;;;8.15;100.00;99077.15;1677298;85;21319;-85
2021/12/08 13:50:48;;;;;;;13.62;7.05;;;;;;;8.11;100.00;99083.16;1676837;84;21390;-86
2021/12/08 13:54:34;;;;;;;7.65;5.47;;;;;;;8.07;100.00;99074.52;1679793;84;21253;-85
2021/12/08 13:57:48;;;;;;;12.45;6.50;;;;;;;8.05;100.00;99079.33;1681786;85;21896;-86
2021/12/08 14:00:55;;;;;;;9.45;6.08;;;;;;;7.99;100.00;99073.78;1685450;85;21296;-83
2021/12/08 14:03:59;;;;;;;13.95;5.50;;;;;;;7.89;100.00;99077.64;1687423;85;21832;-84
2021/12/08 14:07:04;;;;;;;14.05;6.08;;;;;;;7.84;100.00;99084.17;1684649;84;21279;-84
2021/12/08 14:10:22;;;;;;;13.80;6.20;;;;;;;7.80;100.00;99092.38;1673605;85;21282;-83
2021/12/08 14:13:30;;;;;;;12.53;5.55;;;;;;;7.74;100.00;99087.70;1677842;85;21956;-84
2021/12/08 14:16:36;;;;;;;8.60;5.75;;;;;;;7.65;100.00;99086.94;1687904;85;21165;-84
2021/12/08 14:19:45;;;;;;;12.10;5.10;;;;;;;7.58;100.00;99079.73;1682030;83;21753;-85
2021/12/08 14:22:50;;;;;;;15.28;5.47;;;;;;;7.51;100.00;99084.21;1680658;84;21319;-86
2021/12/08 14:26:12;;;;;;;10.53;4.60;;;;;;;7.42;100.00;99084.29;1687139;83;21165;-86
2021/12/08 14:29:21;;;;;;;10.70;5.35;;;;;;;7.36;100.00;99087.77;1687457;83;21176;-84
2021/12/08 14:32:28;;;;;;;8.20;4.72;;;;;;;7.27;100.00;99084.80;1673241;85;21263;-84
2021/12/08 14:35:36;;;;;;;16.82;5.78;;;;;;;7.19;100.00;99093.02;1680688;85;21275;-83
2021/12/08 14:38:41;;;;;;;12.10;5.70;;;;;;;7.13;100.00;99082.89;1667362;83;21315;-83
2021/12/08 14:41:51;;;;;;;10.90;6.17;;;;;;;7.09;100.00;99085.13;1676118;85;21880;-82
2021/12/08 14:45:03;;;;;;;10.82;5.85;;;;;;;7.06;100.00;99083.31;1701952;83;21307;-84
2021/12/08 14:48:05;;;;;;;9.88;5.42;;;;;;;7.02;100.00;99080.63;1679111;84;21327;-83
2021/12/08 14:51:11;;;;;;;9.30;6.28;;;;;;;6.95;100.00;99082.37;1699741;84;21212;-83
2021/12/08 14:54:30;;;;;;;13.55;7.37;;;;;;;6.90;100.00;99083.76;1703582;84;21302;-85
2021/12/08 14:57:40;;;;;;;15.00;7.95;;;;;;;6.86;100.00;99079.70;1703035;84;21894;-83
2021/12/08 15:00:47;;;;;;;15.38;6.58;;;;;;;6.80;100.00;99087.23;1704097;84;21329;-84
2021/12/08 15:03:52;;;;;;;11.18;6.33;;;;;;;6.76;100.00;99089.14;1703941;84;21294;-83
2021/12/08 15:07:08;;;;;;;11.80;6.90;;;;;;;6.68;100.00;99097.34;1704414;84;21872;-83
2021/12/08 15:10:26;;;;;;;14.18;7.17;;;;;;;6.63;100.00;99101.97;1681204;84;21275;-84
2021/12/08 15:13:36;;;;;;;9.88;7.08;;;;;;;6.59;100.00;99106.94;1704847;84;21219;-84
2021/12/08 15:16:42;;;;;;;13.38;7.22;;;;;;;6.58;100.00;99115.25;1688941;84;21282;-85
2021/12/08 15:19:59;;;;;;;15.30;9.95;;;;;;;6.55;100.00;99108.83;1646683;84;21777;-84